sensor_id;sensor_type;location;lat;lon;timestamp;temperature;humidity
55436;DHT22;41307;53.142;6.430;2022-08-21T00:01:53;15.40;99.90
55436;DHT22;41307;53.142;6.430;2022-08-21T00:04:19;15.40;99.90
55436;DHT22;41307;53.142;6.430;2022-08-21T00:06:45;15.40;99.90
55436;DHT22;41307;53.142;6.430;2022-08-21T00:09:11;15.30;99.90
55436;DHT22;41307;53.142;6.430;2022-08-21T00:11:38;15.40;99.90
55436;DHT22;41307;53.142;6.430;2022-08-21T00:14:07;15.30;99.90
55436;DHT22;41307;53.142;6.430;2022-08-21T00:16:33;15.30;99.90
55436;DHT22;41307;53.142;6.430;2022-08-21T00:18:59;15.20;99.90
55436;DHT22;41307;53.142;6.430;2022-08-21T00:21:25;15.20;99.90
55436;DHT22;41307;53.142;6.430;2022-08-21T00:23:51;15.20;99.90
55436;DHT22;41307;53.142;6.430;2022-08-21T00:26:17;15.10;99.90
55436;DHT22;41307;53.142;6.430;2022-08-21T00:28:43;15.10;99.90
55436;DHT22;41307;53.142;6.430;2022-08-21T00:31:11;15.10;99.90
55436;DHT22;41307;53.142;6.430;2022-08-21T00:33:37;15.10;99.90
55436;DHT22;41307;53.142;6.430;2022-08-21T00:36:03;15.10;99.90
55436;DHT22;41307;53.142;6.430;2022-08-21T00:38:29;15.10;99.90
55436;DHT22;41307;53.142;6.430;2022-08-21T00:40:57;15.10;99.90
55436;DHT22;41307;53.142;6.430;2022-08-21T00:43:28;15.10;99.90
55436;DHT22;41307;53.142;6.430;2022-08-21T00:45:54;15.00;99.90
55436;DHT22;41307;53.142;6.430;2022-08-21T00:48:21;15.00;99.90
55436;DHT22;41307;53.142;6.430;2022-08-21T00:53:20;14.90;99.90
55436;DHT22;41307;53.142;6.430;2022-08-21T00:55:45;14.90;99.90
55436;DHT22;41307;53.142;6.430;2022-08-21T00:58:13;14.80;99.90
55436;DHT22;41307;53.142;6.430;2022-08-21T01:00:41;14.80;99.90
55436;DHT22;41307;53.142;6.430;2022-08-21T01:03:14;14.80;99.90
55436;DHT22;41307;53.142;6.430;2022-08-21T01:05:40;14.70;99.90
55436;DHT22;41307;53.142;6.430;2022-08-21T01:08:08;15.10;99.90
55436;DHT22;41307;53.142;6.430;2022-08-21T01:10:36;14.60;99.90
55436;DHT22;41307;53.142;6.430;2022-08-21T01:13:04;14.60;99.90
55436;DHT22;41307;53.142;6.430;2022-08-21T01:15:35;14.60;99.90
55436;DHT22;41307;53.142;6.430;2022-08-21T01:18:03;14.50;99.90
55436;DHT22;41307;53.142;6.430;2022-08-21T01:20:29;14.50;99.90
55436;DHT22;41307;53.142;6.430;2022-08-21T01:22:55;14.50;99.90
55436;DHT22;41307;53.142;6.430;2022-08-21T01:25:21;14.40;99.90
55436;DHT22;41307;53.142;6.430;2022-08-21T01:27:47;14.40;99.90
55436;DHT22;41307;53.142;6.430;2022-08-21T01:30:20;14.40;99.90
55436;DHT22;41307;53.142;6.430;2022-08-21T01:32:48;14.40;99.90
55436;DHT22;41307;53.142;6.430;2022-08-21T01:35:15;14.30;99.90
55436;DHT22;41307;53.142;6.430;2022-08-21T01:37:42;14.30;99.90
55436;DHT22;41307;53.142;6.430;2022-08-21T01:40:08;14.40;99.90
55436;DHT22;41307;53.142;6.430;2022-08-21T01:42:35;14.30;99.90
55436;DHT22;41307;53.142;6.430;2022-08-21T01:45:00;14.20;99.90
55436;DHT22;41307;53.142;6.430;2022-08-21T01:47:26;14.20;99.90
55436;DHT22;41307;53.142;6.430;2022-08-21T01:49:52;14.30;99.90
55436;DHT22;41307;53.142;6.430;2022-08-21T01:52:18;14.20;99.90
55436;DHT22;41307;53.142;6.430;2022-08-21T01:54:44;14.20;99.90
55436;DHT22;41307;53.142;6.430;2022-08-21T01:57:11;14.20;99.90
55436;DHT22;41307;53.142;6.430;2022-08-21T01:59:37;14.20;99.90
55436;DHT22;41307;53.142;6.430;2022-08-21T02:02:04;14.20;99.90
55436;DHT22;41307;53.142;6.430;2022-08-21T02:04:30;14.10;99.90
55436;DHT22;41307;53.142;6.430;2022-08-21T02:06:56;14.10;99.90
55436;DHT22;41307;53.142;6.430;2022-08-21T02:09:22;14.10;99.90
55436;DHT22;41307;53.142;6.430;2022-08-21T02:11:47;14.10;99.90
55436;DHT22;41307;53.142;6.430;2022-08-21T02:14:14;14.10;99.90
55436;DHT22;41307;53.142;6.430;2022-08-21T02:16:41;14.10;99.90
55436;DHT22;41307;53.142;6.430;2022-08-21T02:19:08;14.00;99.90
55436;DHT22;41307;53.142;6.430;2022-08-21T02:21:34;14.10;99.90
55436;DHT22;41307;53.142;6.430;2022-08-21T02:24:00;14.10;99.90
55436;DHT22;41307;53.142;6.430;2022-08-21T02:26:26;14.10;99.90
55436;DHT22;41307;53.142;6.430;2022-08-21T02:28:53;14.10;99.90
55436;DHT22;41307;53.142;6.430;2022-08-21T02:31:19;14.20;99.90
55436;DHT22;41307;53.142;6.430;2022-08-21T02:33:44;14.00;99.90
55436;DHT22;41307;53.142;6.430;2022-08-21T02:36:11;14.00;99.90
55436;DHT22;41307;53.142;6.430;2022-08-21T02:38:38;14.00;99.90
55436;DHT22;41307;53.142;6.430;2022-08-21T02:41:10;14.00;99.90
55436;DHT22;41307;53.142;6.430;2022-08-21T02:43:36;14.00;99.90
55436;DHT22;41307;53.142;6.430;2022-08-21T02:46:03;14.00;99.90
55436;DHT22;41307;53.142;6.430;2022-08-21T02:48:30;14.00;99.90
55436;DHT22;41307;53.142;6.430;2022-08-21T02:51:00;14.00;99.90
55436;DHT22;41307;53.142;6.430;2022-08-21T02:53:28;14.00;99.90
55436;DHT22;41307;53.142;6.430;2022-08-21T02:55:55;14.00;99.90
55436;DHT22;41307;53.142;6.430;2022-08-21T02:58:25;14.00;99.90
55436;DHT22;41307;53.142;6.430;2022-08-21T03:00:51;14.00;99.90
55436;DHT22;41307;53.142;6.430;2022-08-21T03:03:17;14.00;99.90
55436;DHT22;41307;53.142;6.430;2022-08-21T03:05:43;13.90;99.90
55436;DHT22;41307;53.142;6.430;2022-08-21T03:08:11;14.00;99.90
55436;DHT22;41307;53.142;6.430;2022-08-21T03:10:44;14.00;99.90
55436;DHT22;41307;53.142;6.430;2022-08-21T03:13:11;13.90;99.90
55436;DHT22;41307;53.142;6.430;2022-08-21T03:15:37;13.90;99.90
55436;DHT22;41307;53.142;6.430;2022-08-21T03:18:04;13.90;99.90
55436;DHT22;41307;53.142;6.430;2022-08-21T03:20:31;13.90;99.90
55436;DHT22;41307;53.142;6.430;2022-08-21T03:22:58;13.90;99.90
55436;DHT22;41307;53.142;6.430;2022-08-21T03:25:26;13.80;99.90
55436;DHT22;41307;53.142;6.430;2022-08-21T03:27:52;13.90;99.90
55436;DHT22;41307;53.142;6.430;2022-08-21T03:30:19;13.80;99.90
55436;DHT22;41307;53.142;6.430;2022-08-21T03:32:46;13.80;99.90
55436;DHT22;41307;53.142;6.430;2022-08-21T03:35:13;13.80;99.90
55436;DHT22;41307;53.142;6.430;2022-08-21T03:37:39;13.80;99.90
55436;DHT22;41307;53.142;6.430;2022-08-21T03:40:09;13.70;99.90
55436;DHT22;41307;53.142;6.430;2022-08-21T03:42:35;13.80;99.90
55436;DHT22;41307;53.142;6.430;2022-08-21T03:45:01;13.80;99.90
55436;DHT22;41307;53.142;6.430;2022-08-21T03:47:28;13.70;99.90
55436;DHT22;41307;53.142;6.430;2022-08-21T03:49:53;13.70;99.90
55436;DHT22;41307;53.142;6.430;2022-08-21T03:52:19;13.70;99.90
55436;DHT22;41307;53.142;6.430;2022-08-21T03:54:45;13.70;99.90
55436;DHT22;41307;53.142;6.430;2022-08-21T03:57:11;13.70;99.90
55436;DHT22;41307;53.142;6.430;2022-08-21T03:59:38;13.70;99.90
55436;DHT22;41307;53.142;6.430;2022-08-21T04:02:06;13.70;99.90
55436;DHT22;41307;53.142;6.430;2022-08-21T04:04:33;13.70;99.90
55436;DHT22;41307;53.142;6.430;2022-08-21T04:06:59;13.70;99.90
55436;DHT22;41307;53.142;6.430;2022-08-21T04:09:25;13.80;99.90
55436;DHT22;41307;53.142;6.430;2022-08-21T04:11:51;13.80;99.90
55436;DHT22;41307;53.142;6.430;2022-08-21T04:14:17;13.80;99.90
55436;DHT22;41307;53.142;6.430;2022-08-21T04:16:43;13.80;99.90
55436;DHT22;41307;53.142;6.430;2022-08-21T04:19:09;13.80;99.90
55436;DHT22;41307;53.142;6.430;2022-08-21T04:21:36;13.80;99.90
55436;DHT22;41307;53.142;6.430;2022-08-21T04:24:03;13.70;99.90
55436;DHT22;41307;53.142;6.430;2022-08-21T04:26:29;13.80;99.90
55436;DHT22;41307;53.142;6.430;2022-08-21T04:28:57;13.80;99.90
55436;DHT22;41307;53.142;6.430;2022-08-21T04:31:24;13.80;99.90
55436;DHT22;41307;53.142;6.430;2022-08-21T04:33:50;13.90;99.90
55436;DHT22;41307;53.142;6.430;2022-08-21T04:36:17;13.80;99.90
55436;DHT22;41307;53.142;6.430;2022-08-21T04:38:43;13.90;99.90
55436;DHT22;41307;53.142;6.430;2022-08-21T04:41:09;13.90;99.90
55436;DHT22;41307;53.142;6.430;2022-08-21T04:43:34;14.00;99.90
55436;DHT22;41307;53.142;6.430;2022-08-21T04:46:00;14.00;99.90
55436;DHT22;41307;53.142;6.430;2022-08-21T04:48:27;14.00;99.90
55436;DHT22;41307;53.142;6.430;2022-08-21T04:54:18;14.10;99.90
55436;DHT22;41307;53.142;6.430;2022-08-21T04:56:49;14.10;99.90
55436;DHT22;41307;53.142;6.430;2022-08-21T04:59:27;14.10;99.90
55436;DHT22;41307;53.142;6.430;2022-08-21T05:01:54;14.20;99.90
55436;DHT22;41307;53.142;6.430;2022-08-21T05:04:24;14.30;99.90
55436;DHT22;41307;53.142;6.430;2022-08-21T05:06:53;14.20;99.90
55436;DHT22;41307;53.142;6.430;2022-08-21T05:09:20;14.30;99.90
55436;DHT22;41307;53.142;6.430;2022-08-21T05:11:47;14.30;99.90
55436;DHT22;41307;53.142;6.430;2022-08-21T05:14:14;14.40;99.90
55436;DHT22;41307;53.142;6.430;2022-08-21T05:16:40;14.40;99.90
55436;DHT22;41307;53.142;6.430;2022-08-21T05:19:08;14.40;99.90
55436;DHT22;41307;53.142;6.430;2022-08-21T05:21:35;14.50;99.90
55436;DHT22;41307;53.142;6.430;2022-08-21T05:24:01;14.50;99.90
55436;DHT22;41307;53.142;6.430;2022-08-21T05:26:27;14.60;99.90
55436;DHT22;41307;53.142;6.430;2022-08-21T05:28:52;14.70;99.90
55436;DHT22;41307;53.142;6.430;2022-08-21T05:31:18;14.70;99.90
55436;DHT22;41307;53.142;6.430;2022-08-21T05:33:44;14.80;99.90
55436;DHT22;41307;53.142;6.430;2022-08-21T05:36:09;14.90;99.90
55436;DHT22;41307;53.142;6.430;2022-08-21T05:38:35;15.00;99.90
55436;DHT22;41307;53.142;6.430;2022-08-21T05:41:01;15.20;99.90
55436;DHT22;41307;53.142;6.430;2022-08-21T05:43:26;15.40;99.90
55436;DHT22;41307;53.142;6.430;2022-08-21T05:45:52;16.20;99.90
55436;DHT22;41307;53.142;6.430;2022-08-21T05:48:23;17.30;99.90
55436;DHT22;41307;53.142;6.430;2022-08-21T05:50:50;18.50;99.90
55436;DHT22;41307;53.142;6.430;2022-08-21T05:53:18;19.50;99.90
55436;DHT22;41307;53.142;6.430;2022-08-21T05:55:45;20.30;99.90
55436;DHT22;41307;53.142;6.430;2022-08-21T05:58:15;20.90;99.90
55436;DHT22;41307;53.142;6.430;2022-08-21T06:00:41;21.20;99.90
55436;DHT22;41307;53.142;6.430;2022-08-21T06:03:12;21.90;99.90
55436;DHT22;41307;53.142;6.430;2022-08-21T06:05:39;22.50;99.90
55436;DHT22;41307;53.142;6.430;2022-08-21T06:08:05;22.30;99.90
55436;DHT22;41307;53.142;6.430;2022-08-21T06:10:31;22.50;99.90
55436;DHT22;41307;53.142;6.430;2022-08-21T06:12:56;23.00;99.90
55436;DHT22;41307;53.142;6.430;2022-08-21T06:15:22;23.00;99.90
55436;DHT22;41307;53.142;6.430;2022-08-21T06:17:48;23.10;99.90
55436;DHT22;41307;53.142;6.430;2022-08-21T06:20:13;23.50;99.90
55436;DHT22;41307;53.142;6.430;2022-08-21T06:22:39;23.90;99.90
55436;DHT22;41307;53.142;6.430;2022-08-21T06:25:05;24.00;99.90
55436;DHT22;41307;53.142;6.430;2022-08-21T06:27:31;24.20;99.90
55436;DHT22;41307;53.142;6.430;2022-08-21T06:29:57;23.60;99.90
55436;DHT22;41307;53.142;6.430;2022-08-21T06:32:22;22.60;99.90
55436;DHT22;41307;53.142;6.430;2022-08-21T06:34:48;21.80;99.90
55436;DHT22;41307;53.142;6.430;2022-08-21T06:37:14;21.10;99.90
55436;DHT22;41307;53.142;6.430;2022-08-21T06:39:40;20.30;99.90
55436;DHT22;41307;53.142;6.430;2022-08-21T06:42:05;20.10;99.90
55436;DHT22;41307;53.142;6.430;2022-08-21T06:44:31;19.70;99.90
55436;DHT22;41307;53.142;6.430;2022-08-21T06:46:57;19.30;99.90
55436;DHT22;41307;53.142;6.430;2022-08-21T06:49:23;19.20;99.90
55436;DHT22;41307;53.142;6.430;2022-08-21T06:51:49;19.00;99.90
55436;DHT22;41307;53.142;6.430;2022-08-21T06:54:14;18.90;99.90
55436;DHT22;41307;53.142;6.430;2022-08-21T06:56:40;18.90;99.90
55436;DHT22;41307;53.142;6.430;2022-08-21T06:59:06;18.70;99.90
55436;DHT22;41307;53.142;6.430;2022-08-21T07:01:32;18.70;99.90
55436;DHT22;41307;53.142;6.430;2022-08-21T07:03:58;18.70;99.90
55436;DHT22;41307;53.142;6.430;2022-08-21T07:06:24;18.70;99.90
55436;DHT22;41307;53.142;6.430;2022-08-21T07:08:50;18.80;99.90
55436;DHT22;41307;53.142;6.430;2022-08-21T07:11:19;18.90;99.90
55436;DHT22;41307;53.142;6.430;2022-08-21T07:13:45;18.90;99.90
55436;DHT22;41307;53.142;6.430;2022-08-21T07:16:11;19.00;99.90
55436;DHT22;41307;53.142;6.430;2022-08-21T07:18:36;19.00;99.90
55436;DHT22;41307;53.142;6.430;2022-08-21T07:21:04;19.00;99.90
55436;DHT22;41307;53.142;6.430;2022-08-21T07:23:40;19.10;99.90
55436;DHT22;41307;53.142;6.430;2022-08-21T07:26:06;19.20;99.90
55436;DHT22;41307;53.142;6.430;2022-08-21T07:28:32;19.20;99.90
55436;DHT22;41307;53.142;6.430;2022-08-21T07:30:59;19.30;99.90
55436;DHT22;41307;53.142;6.430;2022-08-21T07:33:26;19.30;99.90
55436;DHT22;41307;53.142;6.430;2022-08-21T07:35:53;19.30;99.90
55436;DHT22;41307;53.142;6.430;2022-08-21T07:38:18;19.40;99.90
55436;DHT22;41307;53.142;6.430;2022-08-21T07:40:46;19.40;99.90
55436;DHT22;41307;53.142;6.430;2022-08-21T07:43:12;19.60;99.90
55436;DHT22;41307;53.142;6.430;2022-08-21T07:45:37;19.90;99.90
55436;DHT22;41307;53.142;6.430;2022-08-21T07:48:04;20.60;99.90
55436;DHT22;41307;53.142;6.430;2022-08-21T07:50:30;21.60;99.90
55436;DHT22;41307;53.142;6.430;2022-08-21T07:52:56;22.50;99.90
55436;DHT22;41307;53.142;6.430;2022-08-21T07:55:23;23.20;99.90
55436;DHT22;41307;53.142;6.430;2022-08-21T07:57:49;24.00;99.90
55436;DHT22;41307;53.142;6.430;2022-08-21T08:00:18;24.90;99.90
55436;DHT22;41307;53.142;6.430;2022-08-21T08:02:46;25.30;99.90
55436;DHT22;41307;53.142;6.430;2022-08-21T08:05:14;25.90;99.90
55436;DHT22;41307;53.142;6.430;2022-08-21T08:07:41;25.90;99.90
55436;DHT22;41307;53.142;6.430;2022-08-21T08:10:08;25.70;99.10
55436;DHT22;41307;53.142;6.430;2022-08-21T08:12:35;25.50;97.80
55436;DHT22;41307;53.142;6.430;2022-08-21T08:15:01;25.90;97.70
55436;DHT22;41307;53.142;6.430;2022-08-21T08:17:28;26.00;96.60
55436;DHT22;41307;53.142;6.430;2022-08-21T08:19:53;26.30;96.30
55436;DHT22;41307;53.142;6.430;2022-08-21T08:22:21;26.60;95.70
55436;DHT22;41307;53.142;6.430;2022-08-21T08:24:50;27.10;94.40
55436;DHT22;41307;53.142;6.430;2022-08-21T08:27:16;27.00;93.60
55436;DHT22;41307;53.142;6.430;2022-08-21T08:29:42;27.10;93.20
55436;DHT22;41307;53.142;6.430;2022-08-21T08:32:08;27.20;92.50
55436;DHT22;41307;53.142;6.430;2022-08-21T08:34:35;27.60;92.00
55436;DHT22;41307;53.142;6.430;2022-08-21T08:37:03;27.80;90.90
55436;DHT22;41307;53.142;6.430;2022-08-21T08:39:29;27.80;90.60
55436;DHT22;41307;53.142;6.430;2022-08-21T08:42:02;27.80;90.30
55436;DHT22;41307;53.142;6.430;2022-08-21T08:44:30;27.70;90.10
55436;DHT22;41307;53.142;6.430;2022-08-21T08:46:57;28.00;90.00
55436;DHT22;41307;53.142;6.430;2022-08-21T08:49:24;28.20;89.70
55436;DHT22;41307;53.142;6.430;2022-08-21T08:52:32;28.60;88.90
55436;DHT22;41307;53.142;6.430;2022-08-21T08:55:04;29.20;85.90
55436;DHT22;41307;53.142;6.430;2022-08-21T08:57:31;29.60;85.20
55436;DHT22;41307;53.142;6.430;2022-08-21T09:00:00;29.30;83.80
55436;DHT22;41307;53.142;6.430;2022-08-21T09:02:26;28.50;84.10
55436;DHT22;41307;53.142;6.430;2022-08-21T09:04:55;28.30;85.70
55436;DHT22;41307;53.142;6.430;2022-08-21T09:07:45;27.80;86.30
55436;DHT22;41307;53.142;6.430;2022-08-21T09:10:19;28.30;86.50
55436;DHT22;41307;53.142;6.430;2022-08-21T09:26:25;29.20;83.10
55436;DHT22;41307;53.142;6.430;2022-08-21T09:28:56;29.60;83.90
55436;DHT22;41307;53.142;6.430;2022-08-21T09:31:29;29.40;83.00
55436;DHT22;41307;53.142;6.430;2022-08-21T09:36:42;29.40;82.00
55436;DHT22;41307;53.142;6.430;2022-08-21T09:39:10;29.70;81.40
55436;DHT22;41307;53.142;6.430;2022-08-21T09:41:37;29.90;82.00
55436;DHT22;41307;53.142;6.430;2022-08-21T09:44:05;29.60;81.60
55436;DHT22;41307;53.142;6.430;2022-08-21T09:46:31;29.20;81.50
55436;DHT22;41307;53.142;6.430;2022-08-21T09:49:02;29.10;82.20
55436;DHT22;41307;53.142;6.430;2022-08-21T09:51:31;29.40;81.40
55436;DHT22;41307;53.142;6.430;2022-08-21T09:54:00;29.50;80.10
55436;DHT22;41307;53.142;6.430;2022-08-21T09:56:39;29.60;79.90
55436;DHT22;41307;53.142;6.430;2022-08-21T09:59:34;29.80;79.60
55436;DHT22;41307;53.142;6.430;2022-08-21T10:02:02;29.90;80.50
55436;DHT22;41307;53.142;6.430;2022-08-21T10:04:34;29.80;78.70
55436;DHT22;41307;53.142;6.430;2022-08-21T10:07:12;29.70;78.40
55436;DHT22;41307;53.142;6.430;2022-08-21T10:09:39;30.00;77.90
55436;DHT22;41307;53.142;6.430;2022-08-21T10:18:04;28.90;78.10
55436;DHT22;41307;53.142;6.430;2022-08-21T10:20:45;28.90;78.20
55436;DHT22;41307;53.142;6.430;2022-08-21T10:29:08;27.60;81.80
55436;DHT22;41307;53.142;6.430;2022-08-21T10:31:52;27.10;81.50
55436;DHT22;41307;53.142;6.430;2022-08-21T10:37:21;26.30;81.70
55436;DHT22;41307;53.142;6.430;2022-08-21T10:45:48;25.40;91.80
55436;DHT22;41307;53.142;6.430;2022-08-21T10:48:31;25.30;95.10
55436;DHT22;41307;53.142;6.430;2022-08-21T10:51:19;25.30;95.30
55436;DHT22;41307;53.142;6.430;2022-08-21T10:53:59;25.00;96.60
55436;DHT22;41307;53.142;6.430;2022-08-21T10:56:33;24.80;97.50
55436;DHT22;41307;53.142;6.430;2022-08-21T10:59:25;24.70;98.90
55436;DHT22;41307;53.142;6.430;2022-08-21T11:04:48;24.50;99.90
55436;DHT22;41307;53.142;6.430;2022-08-21T11:07:46;24.40;99.90
55436;DHT22;41307;53.142;6.430;2022-08-21T11:12:50;24.20;99.90
55436;DHT22;41307;53.142;6.430;2022-08-21T11:18:26;24.00;99.90
55436;DHT22;41307;53.142;6.430;2022-08-21T11:21:25;24.00;99.90
55436;DHT22;41307;53.142;6.430;2022-08-21T11:24:24;23.90;99.90
55436;DHT22;41307;53.142;6.430;2022-08-21T11:27:13;24.10;99.90
55436;DHT22;41307;53.142;6.430;2022-08-21T11:29:44;24.30;99.90
